createdAt,value
2022-08-19T00:00:38.007Z,99824.84
2022-08-19T00:03:40.064Z,99819.84
2022-08-19T00:06:42.649Z,99824.88
2022-08-19T00:09:44.528Z,99824.84
2022-08-19T00:12:47.109Z,99820.56
2022-08-19T00:15:49.075Z,99827.69
2022-08-19T00:18:50.929Z,99828.50
2022-08-19T00:21:52.770Z,99818.84
2022-08-19T00:24:54.644Z,99820.09
2022-08-19T00:27:56.653Z,99817.09
2022-08-19T00:30:58.469Z,99829.47
2022-08-19T00:34:00.352Z,99821.28
2022-08-19T00:37:02.156Z,99821.81
2022-08-19T00:40:05.651Z,99823.72
2022-08-19T00:43:11.174Z,99825.50
2022-08-19T00:46:13.045Z,99829.22
2022-08-19T00:49:16.445Z,99827.63
2022-08-19T00:52:30.021Z,99824.38
2022-08-19T00:55:32.200Z,99821.66
2022-08-19T00:58:34.741Z,99816.09
2022-08-19T01:01:40.649Z,99813.84
2022-08-19T01:04:42.561Z,99812.56
2022-08-19T01:07:44.575Z,99823.31
2022-08-19T01:10:48.518Z,99806.22
2022-08-19T01:13:50.471Z,99812.16
2022-08-19T01:16:55.443Z,99813.72
2022-08-19T01:19:57.279Z,99820.66
2022-08-19T01:22:59.433Z,99815.34
2022-08-19T01:26:01.958Z,99810.47
2022-08-19T01:29:05.319Z,99808.34
2022-08-19T01:32:07.778Z,99798.69
2022-08-19T01:35:30.252Z,99807.72
2022-08-19T01:38:32.860Z,99811.75
2022-08-19T01:41:36.514Z,99799.41
2022-08-19T01:44:39.457Z,99806.84
2022-08-19T01:47:41.525Z,99799.22
2022-08-19T01:50:44.586Z,99786.56
2022-08-19T01:53:48.447Z,99788.72
2022-08-19T01:56:51.181Z,99792.63
2022-08-19T01:59:53.101Z,99788.06
2022-08-19T02:02:55.325Z,99773.25
2022-08-19T02:05:58.515Z,99774.31
2022-08-19T02:09:00.390Z,99780.63
2022-08-19T02:12:02.218Z,99780.41
2022-08-19T02:15:04.333Z,99781.63
2022-08-19T02:18:06.391Z,99766.13
2022-08-19T02:21:08.269Z,99763.22
2022-08-19T02:24:10.323Z,99763.91
2022-08-19T02:27:12.326Z,99778.41
2022-08-19T02:30:17.062Z,99755.34
2022-08-19T02:33:18.869Z,99763.34
2022-08-19T02:36:21.211Z,99753.44
2022-08-19T02:39:23.216Z,99762.50
2022-08-19T02:42:25.272Z,99765.84
2022-08-19T02:45:27.122Z,99776.94
2022-08-19T02:48:28.941Z,99769.97
2022-08-19T02:51:32.286Z,99780.69
2022-08-19T02:54:34.171Z,99777.63
2022-08-19T02:57:36.761Z,99783.25
2022-08-19T03:00:43.396Z,99801.53
2022-08-19T03:03:45.234Z,99798.31
2022-08-19T03:06:47.609Z,99803.66
2022-08-19T03:09:49.417Z,99808.44
2022-08-19T03:12:51.397Z,99803.84
2022-08-19T03:15:53.365Z,99805.88
2022-08-19T03:18:56.830Z,99810.91
2022-08-19T03:21:58.826Z,99817.56
2022-08-19T03:25:00.715Z,99816.38
2022-08-19T03:28:02.531Z,99824.56
2022-08-19T03:31:05.838Z,99827.31
2022-08-19T03:34:28.483Z,99818.03
2022-08-19T03:37:30.324Z,99823.63
2022-08-19T03:40:32.240Z,99823.44
2022-08-19T03:43:35.556Z,99833.25
2022-08-19T03:46:37.624Z,99835.22
2022-08-19T03:49:44.364Z,99827.19
2022-08-19T03:52:50.833Z,99834.63
2022-08-19T03:55:52.774Z,99829.19
2022-08-19T03:58:55.018Z,99822.72
2022-08-19T04:01:57.675Z,99844.53
2022-08-19T04:04:59.481Z,99839.78
2022-08-19T04:08:01.549Z,99842.31
2022-08-19T04:11:07.252Z,99843.09
2022-08-19T04:14:09.932Z,99843.06
2022-08-19T04:17:13.918Z,99857.41
2022-08-19T04:20:15.748Z,99854.03
2022-08-19T04:23:17.816Z,99859.22
2022-08-19T04:26:22.078Z,99874.44
2022-08-19T04:29:26.056Z,99863.16
2022-08-19T04:32:28.263Z,99857.41
2022-08-19T04:35:35.609Z,99846.19
2022-08-19T04:38:37.446Z,99850.75
2022-08-19T04:41:57.835Z,99872.56
2022-08-19T04:44:59.794Z,99869.78
2022-08-19T04:48:19.603Z,99880.00
2022-08-19T04:51:24.691Z,99870.13
2022-08-19T04:54:37.380Z,99874.88
2022-08-19T04:57:41.193Z,99865.31
2022-08-19T05:00:43.227Z,99858.88
2022-08-19T05:03:45.136Z,99873.47
2022-08-19T05:06:48.218Z,99868.66
2022-08-19T05:09:57.082Z,99871.66
2022-08-19T05:13:01.247Z,99868.75
2022-08-19T05:16:03.218Z,99865.22
2022-08-19T05:19:23.802Z,99863.75
2022-08-19T05:22:38.258Z,99868.06
2022-08-19T05:25:40.584Z,99861.50
2022-08-19T05:28:43.469Z,99863.31
2022-08-19T05:31:45.670Z,99866.88
2022-08-19T05:34:47.515Z,99864.22
2022-08-19T05:37:49.392Z,99865.44
2022-08-19T05:40:56.774Z,99864.47
2022-08-19T05:43:58.830Z,99861.91
2022-08-19T05:47:01.566Z,99864.81
2022-08-19T05:50:05.019Z,99865.69
2022-08-19T05:53:07.271Z,99858.47
2022-08-19T05:56:09.850Z,99874.50
2022-08-19T05:59:12.509Z,99872.34
2022-08-19T06:02:15.225Z,99867.75
2022-08-19T06:05:17.435Z,99873.91
2022-08-19T06:08:19.703Z,99860.12
2022-08-19T06:11:25.809Z,99868.19
2022-08-19T06:14:31.286Z,99867.50
2022-08-19T06:17:36.133Z,99863.28
2022-08-19T06:20:55.549Z,99860.78
2022-08-19T06:23:58.214Z,99867.97
2022-08-19T06:27:01.420Z,99867.34
2022-08-19T06:30:05.253Z,99863.19
2022-08-19T06:33:07.120Z,99854.66
2022-08-19T06:36:09.587Z,99845.81
2022-08-19T06:39:13.199Z,99843.50
2022-08-19T06:42:17.494Z,99835.91
2022-08-19T06:45:24.661Z,99837.66
2022-08-19T06:48:27.278Z,99854.38
2022-08-19T06:54:37.649Z,99834.44
2022-08-19T06:57:54.894Z,99838.31
2022-08-19T07:00:58.585Z,99843.34
2022-08-19T07:04:03.551Z,99838.81
2022-08-19T07:07:19.887Z,99841.87
2022-08-19T07:10:22.239Z,99853.19
2022-08-19T07:13:24.242Z,99858.63
2022-08-19T07:16:29.108Z,99857.75
2022-08-19T07:19:32.769Z,99861.72
2022-08-19T07:22:35.494Z,99874.41
2022-08-19T07:25:38.426Z,99871.75
2022-08-19T07:28:46.063Z,99869.38
2022-08-19T07:31:54.006Z,99855.13
2022-08-19T07:34:57.024Z,99863.75
2022-08-19T07:37:59.359Z,99854.41
2022-08-19T07:41:01.432Z,99863.09
2022-08-19T07:44:04.776Z,99857.59
2022-08-19T07:47:07.792Z,99854.34
2022-08-19T07:50:29.755Z,99858.22
2022-08-19T07:53:34.686Z,99838.56
2022-08-19T07:56:40.657Z,99850.94
2022-08-19T07:59:42.697Z,99853.69
2022-08-19T08:02:44.687Z,99847.97
2022-08-19T08:06:05.468Z,99854.22
2022-08-19T08:09:12.637Z,99847.97
2022-08-19T08:12:35.366Z,99844.69
2022-08-19T08:15:42.789Z,99851.97
2022-08-19T08:18:50.763Z,99842.13
2022-08-19T08:21:56.322Z,99847.22
2022-08-19T08:25:00.178Z,99849.47
2022-08-19T08:28:02.404Z,99844.50
2022-08-19T08:31:09.631Z,99854.97
2022-08-19T08:34:13.217Z,99842.03
2022-08-19T08:37:16.237Z,99845.44
2022-08-19T08:40:37.342Z,99845.44
2022-08-19T08:43:43.879Z,99842.25
2022-08-19T08:46:53.262Z,99838.22
2022-08-19T08:50:04.667Z,99832.47
2022-08-19T08:53:07.144Z,99833.19
2022-08-19T08:56:16.973Z,99814.00
2022-08-19T08:59:25.936Z,99807.69
2022-08-19T09:02:27.819Z,99799.72
2022-08-19T09:05:42.170Z,99806.50
2022-08-19T09:09:12.174Z,99811.59
2022-08-19T09:12:26.906Z,99817.84
2022-08-19T09:15:40.362Z,99819.13
2022-08-19T09:18:42.399Z,99811.91
2022-08-19T09:21:46.849Z,99803.03
2022-08-19T09:24:53.240Z,99807.25
2022-08-19T09:28:02.694Z,99812.56
2022-08-19T09:31:05.146Z,99806.88
2022-08-19T09:34:07.160Z,99795.31
2022-08-19T09:37:09.246Z,99799.12
2022-08-19T09:40:12.816Z,99787.53
2022-08-19T09:43:15.173Z,99783.69
2022-08-19T09:46:34.978Z,99787.94
2022-08-19T09:49:36.998Z,99777.31
2022-08-19T09:52:40.746Z,99759.31
2022-08-19T09:55:56.322Z,99764.34
2022-08-19T09:59:02.075Z,99773.53
2022-08-19T10:02:10.725Z,99760.13
2022-08-19T10:05:31.821Z,99749.66
2022-08-19T10:08:34.962Z,99743.25
2022-08-19T10:11:39.683Z,99752.72
2022-08-19T10:14:43.488Z,99741.13
2022-08-19T10:17:48.066Z,99751.00
2022-08-19T10:21:04.301Z,99745.47
2022-08-19T10:24:06.824Z,99743.75
2022-08-19T10:27:11.616Z,99733.94
2022-08-19T10:30:14.082Z,99737.22
2022-08-19T10:33:38.477Z,99738.78
2022-08-19T10:36:38.256Z,99728.41
2022-08-19T10:39:58.719Z,99735.34
2022-08-19T10:43:00.625Z,99740.28
2022-08-19T10:46:04.657Z,99725.56
2022-08-19T10:49:12.209Z,99731.28
2022-08-19T10:52:33.186Z,99738.62
2022-08-19T10:55:54.216Z,99734.00
2022-08-19T10:58:57.708Z,99735.25
2022-08-19T11:02:00.199Z,99741.59
2022-08-19T11:05:05.095Z,99743.25
2022-08-19T11:08:22.506Z,99730.56
2022-08-19T11:11:25.614Z,99739.19
2022-08-19T11:14:28.303Z,99731.41
2022-08-19T11:17:34.098Z,99734.94
2022-08-19T11:20:35.924Z,99727.47
2022-08-19T11:23:38.014Z,99725.88
2022-08-19T11:26:40.287Z,99727.59
2022-08-19T11:29:42.288Z,99733.22
2022-08-19T11:32:49.070Z,99721.97
2022-08-19T11:35:51.393Z,99716.19
2022-08-19T11:38:53.270Z,99719.16
2022-08-19T11:41:55.306Z,99725.59
2022-08-19T11:44:57.175Z,99723.88
2022-08-19T11:47:59.033Z,99714.75
2022-08-19T11:51:06.338Z,99715.75
2022-08-19T11:54:08.237Z,99705.78
2022-08-19T11:57:10.179Z,99710.81
2022-08-19T12:00:13.854Z,99693.47
2022-08-19T12:03:15.766Z,99694.06
2022-08-19T12:06:26.491Z,99694.78
2022-08-19T12:09:28.431Z,99685.69
2022-08-19T12:12:33.043Z,99677.12
2022-08-19T12:15:38.590Z,99681.97
2022-08-19T12:18:43.520Z,99687.16
2022-08-19T12:21:45.367Z,99684.31
2022-08-19T12:24:47.381Z,99698.31
2022-08-19T12:27:57.290Z,99697.56
2022-08-19T12:30:59.772Z,99691.62
2022-08-19T12:34:02.570Z,99693.50
2022-08-19T12:37:05.591Z,99697.78
2022-08-19T12:40:07.841Z,99693.44
2022-08-19T12:43:09.882Z,99692.22
2022-08-19T12:46:12.101Z,99674.72
2022-08-19T12:49:32.157Z,99692.28
2022-08-19T12:52:43.463Z,99678.41
2022-08-19T12:55:45.454Z,99673.53
2022-08-19T12:58:49.038Z,99668.97
2022-08-19T13:01:54.862Z,99661.59
2022-08-19T13:04:56.847Z,99658.59
2022-08-19T13:08:00.523Z,99667.09
2022-08-19T13:11:09.784Z,99663.03
2022-08-19T13:14:12.772Z,99666.78
2022-08-19T13:17:16.392Z,99662.41
2022-08-19T13:20:19.929Z,99662.09
2022-08-19T13:23:22.461Z,99652.88
2022-08-19T13:26:24.325Z,99655.81
2022-08-19T13:29:45.112Z,99648.56
2022-08-19T13:33:05.315Z,99640.84
2022-08-19T13:36:08.717Z,99633.03
2022-08-19T13:39:10.666Z,99642.44
2022-08-19T13:42:14.499Z,99638.00
2022-08-19T13:45:18.827Z,99642.31
2022-08-19T13:48:20.674Z,99637.38
2022-08-19T13:51:22.489Z,99640.38
2022-08-19T13:54:24.323Z,99623.59
2022-08-19T13:57:26.230Z,99616.94
2022-08-19T14:00:29.066Z,99624.91
2022-08-19T14:03:31.299Z,99613.78
2022-08-19T14:06:33.451Z,99608.88
2022-08-19T14:09:35.302Z,99628.34
2022-08-19T14:12:37.150Z,99638.47
2022-08-19T14:15:39.071Z,99644.66
2022-08-19T14:18:41.169Z,99649.31
2022-08-19T14:21:43.084Z,99649.06
2022-08-19T14:24:47.917Z,99663.31
2022-08-19T14:27:50.680Z,99671.56
2022-08-19T14:30:55.247Z,99663.50
2022-08-19T14:33:58.657Z,99668.19
2022-08-19T14:37:00.844Z,99659.19
2022-08-19T14:40:04.726Z,99650.94
2022-08-19T14:43:06.628Z,99660.78
2022-08-19T14:46:09.063Z,99663.94
2022-08-19T14:49:13.025Z,99677.69
2022-08-19T14:52:15.190Z,99671.00
2022-08-19T14:55:18.159Z,99659.50
2022-08-19T14:58:29.312Z,99676.78
2022-08-19T15:01:32.373Z,99695.94
2022-08-19T15:04:34.222Z,99707.72
2022-08-19T15:07:36.099Z,99707.19
2022-08-19T15:10:39.674Z,99706.16
2022-08-19T15:13:41.791Z,99703.00
2022-08-19T15:16:43.963Z,99719.28
2022-08-19T15:19:45.937Z,99726.84
2022-08-19T15:22:48.010Z,99724.19
2022-08-19T15:25:54.372Z,99741.59
2022-08-19T15:28:57.066Z,99745.91
2022-08-19T15:31:58.942Z,99763.00
2022-08-19T15:35:02.529Z,99776.16
2022-08-19T15:38:06.611Z,99781.66
2022-08-19T15:41:25.865Z,99791.19
2022-08-19T15:44:27.986Z,99788.75
2022-08-19T15:47:35.265Z,99778.69
2022-08-19T15:50:39.517Z,99748.19
2022-08-19T15:53:44.322Z,99710.03
2022-08-19T15:57:04.863Z,99706.59
2022-08-19T16:00:26.803Z,99710.50
2022-08-19T16:03:47.557Z,99707.44
2022-08-19T16:06:51.086Z,99705.13
2022-08-19T16:09:53.290Z,99705.28
2022-08-19T16:12:56.825Z,99704.03
2022-08-19T16:15:58.999Z,99703.69
2022-08-19T16:19:11.901Z,99687.63
2022-08-19T16:22:14.268Z,99679.19
2022-08-19T16:25:16.130Z,99672.72
2022-08-19T16:28:18.006Z,99684.19
2022-08-19T16:31:19.844Z,99689.75
2022-08-19T16:34:21.772Z,99705.09
2022-08-19T16:37:23.615Z,99718.25
2022-08-19T16:40:25.601Z,99723.84
2022-08-19T16:43:28.308Z,99727.16
2022-08-19T16:46:30.255Z,99754.06
2022-08-19T16:49:54.129Z,99784.88
2022-08-19T16:52:54.135Z,99802.97
2022-08-19T16:55:57.409Z,99813.53
2022-08-19T16:59:02.435Z,99818.31
2022-08-19T17:02:04.965Z,99831.19
2022-08-19T17:05:08.138Z,99860.06
2022-08-19T17:08:10.187Z,99869.91
2022-08-19T17:11:18.063Z,99876.19
2022-08-19T17:14:21.937Z,99840.50
2022-08-19T17:17:28.306Z,99828.78
2022-08-19T17:20:31.141Z,99817.31
2022-08-19T17:23:42.942Z,99784.38
2022-08-19T17:26:45.780Z,99754.38
2022-08-19T17:29:48.137Z,99752.78
2022-08-19T17:32:50.274Z,99739.16
2022-08-19T17:35:52.082Z,99734.31
2022-08-19T17:38:55.363Z,99717.78
2022-08-19T17:41:57.594Z,99702.66
2022-08-19T17:45:05.064Z,99691.31
2022-08-19T17:48:07.310Z,99671.94
2022-08-19T17:51:15.745Z,99672.31
2022-08-19T17:54:18.744Z,99661.56
2022-08-19T17:57:20.573Z,99667.09
2022-08-19T18:00:22.380Z,99671.56
2022-08-19T18:03:24.230Z,99671.59
2022-08-19T18:06:26.240Z,99680.28
2022-08-19T18:09:41.184Z,99681.03
2022-08-19T18:12:44.608Z,99699.84
2022-08-19T18:15:48.039Z,99718.75
2022-08-19T18:18:49.921Z,99759.63
2022-08-19T18:21:52.110Z,99811.03
2022-08-19T18:24:54.788Z,99860.81
2022-08-19T18:27:57.649Z,99867.28
2022-08-19T18:30:59.760Z,99861.31
2022-08-19T18:34:01.758Z,99865.03
2022-08-19T18:37:03.565Z,99921.97
2022-08-19T18:40:25.024Z,99970.50
2022-08-19T18:43:26.926Z,99994.34
2022-08-19T18:46:47.553Z,99999.88
2022-08-19T18:49:51.102Z,100018.81
2022-08-19T18:52:52.999Z,100008.66
2022-08-19T18:55:55.542Z,99983.72
2022-08-19T18:59:01.023Z,99996.06
2022-08-19T19:02:02.936Z,100000.63
2022-08-19T19:05:07.378Z,99948.66
2022-08-19T19:08:09.433Z,99938.53
2022-08-19T19:11:11.440Z,99920.19
2022-08-19T19:14:32.505Z,99914.28
2022-08-19T19:17:36.474Z,99901.00
2022-08-19T19:20:38.480Z,99893.94
2022-08-19T19:23:41.089Z,99886.25
2022-08-19T19:26:45.530Z,99870.91
2022-08-19T19:29:51.745Z,99874.44
2022-08-19T19:32:56.228Z,99872.37
2022-08-19T19:35:58.363Z,99868.47
2022-08-19T19:39:00.418Z,99857.94
2022-08-19T19:42:06.344Z,99857.16
2022-08-19T19:45:15.162Z,99831.09
2022-08-19T19:48:17.000Z,99814.69
2022-08-19T19:51:19.922Z,99795.44
2022-08-19T19:54:23.652Z,99808.69
2022-08-19T19:57:26.883Z,99818.31
2022-08-19T20:00:28.869Z,99841.13
2022-08-19T20:03:30.821Z,99830.31
2022-08-19T20:06:33.520Z,99815.84
2022-08-19T20:09:58.301Z,99801.41
2022-08-19T20:12:57.294Z,99849.78
2022-08-19T20:15:59.219Z,100082.53
2022-08-19T20:19:01.470Z,100088.44
2022-08-19T20:22:04.090Z,100088.31
2022-08-19T20:25:06.732Z,100115.72
2022-08-19T20:28:08.761Z,100112.22
2022-08-19T20:31:10.766Z,100105.81
2022-08-19T20:34:14.051Z,100129.94
2022-08-19T20:37:15.959Z,100137.25
2022-08-19T20:40:21.651Z,100149.56
2022-08-19T20:43:24.520Z,100158.06
2022-08-19T20:46:28.550Z,100182.41
2022-08-19T20:49:30.402Z,100175.31
2022-08-19T20:52:33.003Z,100147.19
2022-08-19T20:55:35.065Z,100177.44
2022-08-19T20:58:38.066Z,100187.25
2022-08-19T21:01:40.051Z,100185.22
2022-08-19T21:04:42.026Z,100170.06
2022-08-19T21:07:44.383Z,100154.22
2022-08-19T21:10:47.185Z,100139.69
2022-08-19T21:13:49.090Z,100124.69
2022-08-19T21:16:50.958Z,100112.47
2022-08-19T21:19:52.799Z,100116.13
2022-08-19T21:22:54.672Z,100085.00
2022-08-19T21:25:57.063Z,100064.50
2022-08-19T21:28:58.972Z,100055.03
2022-08-19T21:32:00.801Z,100036.56
2022-08-19T21:35:03.086Z,100014.09
2022-08-19T21:38:04.966Z,99997.03
2022-08-19T21:41:07.072Z,99994.63
2022-08-19T21:44:08.928Z,100021.94
2022-08-19T21:47:10.880Z,100009.97
2022-08-19T21:50:12.897Z,99979.66
2022-08-19T21:53:17.715Z,99976.38
2022-08-19T21:56:19.815Z,99961.28
2022-08-19T21:59:22.014Z,99944.28
2022-08-19T22:02:23.884Z,99923.28
2022-08-19T22:05:25.881Z,99923.97
2022-08-19T22:08:27.849Z,99907.06
2022-08-19T22:11:29.683Z,99915.38
2022-08-19T22:14:33.688Z,99914.12
2022-08-19T22:17:35.876Z,99929.66
2022-08-19T22:20:37.750Z,99919.13
2022-08-19T22:23:40.682Z,99890.44
2022-08-19T22:26:42.538Z,99870.78
2022-08-19T22:29:44.366Z,99846.72
2022-08-19T22:32:46.955Z,99850.00
2022-08-19T22:35:48.823Z,99858.28
2022-08-19T22:38:50.670Z,99851.84
2022-08-19T22:41:52.483Z,99830.38
2022-08-19T22:44:56.728Z,99826.31
2022-08-19T22:47:58.563Z,99840.41
2022-08-19T22:51:18.955Z,99817.63
2022-08-19T22:54:20.798Z,99821.28
2022-08-19T22:57:22.916Z,99821.06
2022-08-19T23:00:27.544Z,99822.19
2022-08-19T23:03:29.474Z,99814.91
2022-08-19T23:06:34.468Z,99791.84
2022-08-19T23:09:37.553Z,99793.59
2022-08-19T23:12:44.220Z,99791.62
2022-08-19T23:15:46.315Z,99784.12
2022-08-19T23:18:48.822Z,99808.69
2022-08-19T23:21:58.084Z,99808.91
2022-08-19T23:25:01.984Z,99815.53
2022-08-19T23:28:23.050Z,99826.00
2022-08-19T23:31:27.841Z,99816.13
2022-08-19T23:34:29.781Z,99805.66
2022-08-19T23:37:31.602Z,99800.34
2022-08-19T23:40:34.201Z,99800.88
2022-08-19T23:43:36.984Z,99797.34
2022-08-19T23:46:54.409Z,99791.91
2022-08-19T23:49:58.018Z,99780.37
2022-08-19T23:53:00.187Z,99788.66
2022-08-19T23:56:02.010Z,99792.59
2022-08-19T23:59:03.844Z,99792.25
